createdAt,value
2023-01-23T00:01:29.079Z,16.17
2023-01-23T00:03:57.438Z,14.00
2023-01-23T00:06:25.018Z,15.30
2023-01-23T00:08:52.300Z,14.83
2023-01-23T00:11:22.537Z,12.00
2023-01-23T00:13:50.307Z,13.97
2023-01-23T00:16:20.218Z,11.57
2023-01-23T00:18:48.145Z,13.67
2023-01-23T00:21:16.266Z,14.23
2023-01-23T00:23:44.933Z,14.07
2023-01-23T00:26:15.874Z,14.20
2023-01-23T00:28:45.294Z,12.03
2023-01-23T00:31:14.470Z,13.20
2023-01-23T00:33:43.413Z,14.30
2023-01-23T00:36:11.731Z,11.53
2023-01-23T00:38:40.046Z,14.23
2023-01-23T00:41:07.893Z,17.83
2023-01-23T00:43:35.320Z,12.93
2023-01-23T00:46:02.828Z,14.47
2023-01-23T00:48:30.405Z,15.37
2023-01-23T00:50:57.741Z,17.60
2023-01-23T00:53:25.414Z,14.57
2023-01-23T00:55:53.611Z,15.40
2023-01-23T00:58:20.992Z,13.90
2023-01-23T01:00:50.176Z,14.27
2023-01-23T01:03:20.500Z,13.83
2023-01-23T01:05:48.302Z,12.20
2023-01-23T01:08:15.800Z,14.00
2023-01-23T01:10:43.684Z,12.13
2023-01-23T01:13:11.817Z,14.20
2023-01-23T01:15:39.901Z,14.60
2023-01-23T01:18:07.400Z,15.50
2023-01-23T01:20:35.211Z,13.30
2023-01-23T01:23:02.931Z,13.70
2023-01-23T01:25:31.549Z,17.03
2023-01-23T01:27:59.423Z,16.97
2023-01-23T01:30:27.230Z,14.67
2023-01-23T01:32:55.450Z,14.50
2023-01-23T01:35:23.697Z,14.40
2023-01-23T01:37:52.119Z,15.13
2023-01-23T01:40:21.597Z,12.60
2023-01-23T01:42:51.484Z,14.97
2023-01-23T01:45:38.199Z,12.70
2023-01-23T01:48:05.493Z,13.07
2023-01-23T01:50:35.115Z,14.43
2023-01-23T01:53:04.800Z,13.53
2023-01-23T01:55:32.949Z,15.97
2023-01-23T01:58:01.625Z,14.80
2023-01-23T02:00:28.931Z,10.57
2023-01-23T02:03:01.474Z,15.37
2023-01-23T02:05:31.145Z,12.90
2023-01-23T02:08:18.042Z,15.23
2023-01-23T02:10:47.490Z,15.00
2023-01-23T02:13:28.399Z,18.07
2023-01-23T02:15:56.470Z,15.93
2023-01-23T02:18:24.829Z,14.10
2023-01-23T02:20:53.285Z,16.03
2023-01-23T02:23:30.476Z,12.30
2023-01-23T02:26:06.213Z,16.33
2023-01-23T02:28:41.859Z,14.70
2023-01-23T02:31:10.368Z,13.77
2023-01-23T02:33:38.480Z,16.67
2023-01-23T02:36:06.101Z,15.83
2023-01-23T02:38:37.057Z,15.93
2023-01-23T02:41:06.473Z,15.53
2023-01-23T02:43:39.184Z,16.30
2023-01-23T02:46:10.041Z,13.50
2023-01-23T02:48:38.189Z,16.27
2023-01-23T02:51:06.090Z,15.30
2023-01-23T02:53:33.764Z,15.20
2023-01-23T02:56:01.016Z,18.67
2023-01-23T02:58:47.368Z,16.00
2023-01-23T03:01:14.603Z,19.20
2023-01-23T03:03:42.508Z,18.07
2023-01-23T03:06:10.532Z,16.80
2023-01-23T03:08:48.136Z,17.40
2023-01-23T03:11:17.844Z,17.97
2023-01-23T03:13:46.434Z,18.30
2023-01-23T03:16:14.021Z,16.77
2023-01-23T03:18:53.618Z,17.30
2023-01-23T03:21:22.159Z,15.07
2023-01-23T03:23:49.602Z,18.07
2023-01-23T03:26:20.061Z,16.40
2023-01-23T03:29:07.920Z,15.30
2023-01-23T03:31:36.355Z,18.57
2023-01-23T03:34:04.038Z,13.80
2023-01-23T03:36:37.271Z,17.43
2023-01-23T03:39:24.233Z,13.90
2023-01-23T03:41:52.983Z,13.30
2023-01-23T03:44:22.677Z,13.27
2023-01-23T03:46:51.538Z,13.70
2023-01-23T03:49:19.211Z,15.00
2023-01-23T03:51:50.596Z,15.33
2023-01-23T03:54:18.112Z,13.50
2023-01-23T03:56:45.935Z,16.20
2023-01-23T03:59:30.038Z,13.43
2023-01-23T04:01:58.029Z,13.93
2023-01-23T04:04:25.794Z,15.13
2023-01-23T04:06:53.277Z,16.50
2023-01-23T04:09:26.419Z,12.93
2023-01-23T04:11:58.427Z,11.17
2023-01-23T04:14:30.441Z,13.43
2023-01-23T04:16:59.544Z,13.30
2023-01-23T04:19:26.975Z,12.93
2023-01-23T04:21:54.499Z,16.30
2023-01-23T04:24:22.187Z,12.97
2023-01-23T04:26:50.627Z,11.70
2023-01-23T04:29:17.998Z,15.20
2023-01-23T04:31:47.521Z,13.30
2023-01-23T04:34:15.603Z,12.70
2023-01-23T04:36:43.654Z,11.80
2023-01-23T04:39:11.248Z,16.87
2023-01-23T04:41:41.797Z,13.20
2023-01-23T04:44:20.854Z,17.50
2023-01-23T04:47:07.638Z,11.60
2023-01-23T04:49:36.053Z,14.80
2023-01-23T04:52:04.970Z,15.77
2023-01-23T04:54:36.468Z,14.17
2023-01-23T04:57:04.544Z,14.97
2023-01-23T04:59:32.725Z,14.03
2023-01-23T05:02:02.302Z,13.47
2023-01-23T05:04:36.496Z,14.20
2023-01-23T05:07:04.880Z,18.47
2023-01-23T05:09:39.662Z,10.63
2023-01-23T05:12:08.870Z,14.00
2023-01-23T05:14:38.937Z,13.70
2023-01-23T05:17:06.348Z,13.53
2023-01-23T05:19:42.373Z,16.93
2023-01-23T05:22:11.022Z,14.20
2023-01-23T05:24:38.916Z,12.07
2023-01-23T05:27:06.483Z,12.90
2023-01-23T05:29:37.901Z,13.47
2023-01-23T05:32:14.611Z,11.07
2023-01-23T05:35:05.629Z,13.77
2023-01-23T05:37:33.200Z,11.50
2023-01-23T05:40:07.024Z,11.90
2023-01-23T05:42:53.365Z,13.17
2023-01-23T05:45:43.617Z,12.27
2023-01-23T05:48:19.213Z,11.90
2023-01-23T05:50:47.050Z,13.40
2023-01-23T05:53:14.751Z,14.20
2023-01-23T05:55:42.886Z,11.00
2023-01-23T05:58:15.027Z,10.10
2023-01-23T06:01:09.675Z,12.30
2023-01-23T06:03:55.640Z,15.20
2023-01-23T06:06:37.011Z,11.10
2023-01-23T06:09:04.581Z,9.87
2023-01-23T06:11:32.313Z,14.17
2023-01-23T06:13:59.894Z,12.70
2023-01-23T06:16:28.328Z,11.97
2023-01-23T06:18:56.275Z,13.87
2023-01-23T06:21:23.883Z,12.40
2023-01-23T06:23:51.055Z,11.50
2023-01-23T06:26:19.337Z,9.33
2023-01-23T06:28:48.930Z,11.67
2023-01-23T06:31:17.097Z,11.23
2023-01-23T06:33:54.576Z,12.00
2023-01-23T06:36:26.827Z,11.03
2023-01-23T06:38:55.602Z,10.50
2023-01-23T06:41:28.812Z,11.77
2023-01-23T06:44:01.322Z,11.67
2023-01-23T06:46:29.662Z,9.77
2023-01-23T06:48:57.706Z,10.10
2023-01-23T06:51:25.131Z,12.47
2023-01-23T06:53:52.701Z,13.53
2023-01-23T06:56:20.086Z,11.23
2023-01-23T06:58:48.828Z,10.23
2023-01-23T07:01:26.470Z,13.07
2023-01-23T07:04:19.893Z,10.03
2023-01-23T07:06:50.159Z,12.40
2023-01-23T07:09:19.556Z,14.23
2023-01-23T07:11:55.088Z,10.10
2023-01-23T07:14:22.724Z,10.77
2023-01-23T07:16:54.076Z,9.10
2023-01-23T07:19:21.430Z,13.53
2023-01-23T07:21:49.194Z,9.00
2023-01-23T07:24:16.471Z,9.53
2023-01-23T07:26:43.626Z,9.50
2023-01-23T07:29:11.791Z,10.57
2023-01-23T07:31:39.006Z,11.17
2023-01-23T07:34:06.242Z,9.63
2023-01-23T07:36:33.376Z,10.47
2023-01-23T07:39:00.585Z,9.50
2023-01-23T07:41:27.735Z,11.33
2023-01-23T07:43:54.865Z,9.77
2023-01-23T07:46:23.650Z,11.53
2023-01-23T07:48:50.951Z,9.90
2023-01-23T07:51:18.130Z,12.60
2023-01-23T07:53:45.341Z,10.63
2023-01-23T07:56:13.374Z,14.57
2023-01-23T07:58:40.533Z,10.63
2023-01-23T08:01:09.038Z,12.67
2023-01-23T08:03:36.500Z,12.00
2023-01-23T08:06:04.440Z,9.47
2023-01-23T08:08:31.607Z,10.87
2023-01-23T08:10:58.801Z,11.30
2023-01-23T08:13:25.989Z,10.23
2023-01-23T08:15:55.433Z,12.30
2023-01-23T08:18:22.677Z,10.83
2023-01-23T08:20:54.191Z,13.13
2023-01-23T08:23:21.366Z,10.33
2023-01-23T08:25:52.770Z,11.97
2023-01-23T08:28:20.002Z,12.87
2023-01-23T08:30:47.335Z,11.10
2023-01-23T08:33:14.560Z,12.90
2023-01-23T08:35:48.929Z,11.60
2023-01-23T08:38:17.605Z,13.13
2023-01-23T08:40:44.804Z,9.80
2023-01-23T08:43:13.863Z,11.30
2023-01-23T08:45:54.613Z,9.77
2023-01-23T08:48:22.456Z,11.43
2023-01-23T08:50:51.819Z,11.37
2023-01-23T08:53:19.018Z,14.77
2023-01-23T08:55:46.164Z,11.30
2023-01-23T08:58:13.316Z,11.60
2023-01-23T09:00:40.916Z,11.83
2023-01-23T09:03:11.128Z,11.70
2023-01-23T09:05:39.428Z,12.20
2023-01-23T09:08:06.643Z,14.30
2023-01-23T09:10:33.903Z,12.93
2023-01-23T09:13:02.478Z,11.40
2023-01-23T09:15:29.622Z,11.87
2023-01-23T09:17:57.029Z,12.27
2023-01-23T09:20:28.940Z,11.50
2023-01-23T09:22:56.323Z,12.13
2023-01-23T09:25:23.552Z,11.10
2023-01-23T09:27:50.703Z,11.83
2023-01-23T09:30:18.250Z,13.50
2023-01-23T09:32:46.301Z,12.60
2023-01-23T09:35:13.480Z,11.73
2023-01-23T09:37:59.856Z,11.50
2023-01-23T09:40:32.814Z,11.50
2023-01-23T09:43:02.815Z,10.10
2023-01-23T09:45:30.859Z,11.33
2023-01-23T09:48:05.445Z,10.10
2023-01-23T09:50:38.556Z,9.50
2023-01-23T09:53:14.043Z,11.37
2023-01-23T09:56:00.484Z,9.33
2023-01-23T09:58:39.296Z,11.23
2023-01-23T10:01:06.541Z,8.27
2023-01-23T10:03:33.735Z,10.33
2023-01-23T10:06:19.454Z,11.17
2023-01-23T10:09:04.922Z,11.77
2023-01-23T10:11:51.240Z,14.17
2023-01-23T10:14:27.642Z,9.23
2023-01-23T10:17:01.022Z,10.17
2023-01-23T10:20:06.771Z,10.63
2023-01-23T10:22:42.137Z,10.60
2023-01-23T10:25:15.975Z,9.10
2023-01-23T10:27:48.808Z,10.13
2023-01-23T10:30:21.561Z,10.27
2023-01-23T10:32:49.336Z,13.00
2023-01-23T10:35:19.716Z,11.20
2023-01-23T10:38:09.657Z,10.27
2023-01-23T10:40:55.756Z,9.97
2023-01-23T10:43:23.302Z,10.37
2023-01-23T10:45:50.823Z,11.57
2023-01-23T10:48:33.344Z,12.33
2023-01-23T10:51:01.063Z,10.53
2023-01-23T10:53:28.325Z,10.63
2023-01-23T10:55:58.003Z,12.00
2023-01-23T10:58:37.196Z,11.60
2023-01-23T11:01:05.155Z,11.20
2023-01-23T11:03:33.690Z,10.73
2023-01-23T11:06:05.452Z,11.23
2023-01-23T11:08:32.726Z,9.00
2023-01-23T11:11:18.601Z,12.47
2023-01-23T11:13:47.316Z,11.60
2023-01-23T11:16:18.817Z,9.23
2023-01-23T11:19:06.211Z,9.80
2023-01-23T11:21:34.888Z,14.70
2023-01-23T11:24:20.471Z,10.87
2023-01-23T11:26:58.539Z,7.37
2023-01-23T11:29:26.965Z,10.17
2023-01-23T11:32:06.179Z,10.40
2023-01-23T11:34:43.597Z,9.83
2023-01-23T11:37:14.640Z,8.70
2023-01-23T11:39:50.355Z,9.63
2023-01-23T11:42:19.410Z,15.50
2023-01-23T11:44:47.780Z,11.20
2023-01-23T11:47:20.811Z,10.50
2023-01-23T11:49:54.194Z,13.20
2023-01-23T11:52:31.520Z,10.43
2023-01-23T11:55:22.962Z,8.40
2023-01-23T11:57:56.611Z,8.00
2023-01-23T12:00:34.077Z,13.40
2023-01-23T12:03:19.572Z,10.60
2023-01-23T12:06:19.229Z,14.63
2023-01-23T12:08:54.489Z,8.80
2023-01-23T12:11:24.210Z,9.10
2023-01-23T12:13:51.374Z,10.33
2023-01-23T12:16:24.962Z,9.60
2023-01-23T12:18:52.204Z,7.73
2023-01-23T12:21:21.040Z,9.43
2023-01-23T12:23:57.408Z,11.87
2023-01-23T12:26:26.288Z,9.27
2023-01-23T12:29:13.566Z,10.13
2023-01-23T12:31:45.458Z,14.20
2023-01-23T12:34:31.033Z,10.87
2023-01-23T12:37:12.325Z,9.57
2023-01-23T12:39:56.192Z,9.53
2023-01-23T12:42:37.326Z,13.93
2023-01-23T12:45:12.530Z,10.93
2023-01-23T12:47:49.513Z,9.07
2023-01-23T12:50:20.414Z,12.80
2023-01-23T12:52:54.242Z,14.47
2023-01-23T12:55:26.813Z,14.00
2023-01-23T12:58:07.110Z,10.23
2023-01-23T13:00:35.356Z,10.40
2023-01-23T13:03:18.390Z,10.30
2023-01-23T13:05:52.748Z,9.90
2023-01-23T13:08:40.540Z,11.07
2023-01-23T13:11:44.728Z,9.87
2023-01-23T13:14:21.745Z,9.50
2023-01-23T13:16:49.886Z,12.30
2023-01-23T13:19:46.307Z,11.40
2023-01-23T13:22:26.757Z,10.43
2023-01-23T13:25:12.718Z,9.13
2023-01-23T13:27:55.543Z,9.63
2023-01-23T13:30:26.136Z,8.13
2023-01-23T13:32:54.799Z,10.97
2023-01-23T13:35:40.118Z,12.13
2023-01-23T13:38:29.406Z,9.13
2023-01-23T13:41:04.463Z,8.43
2023-01-23T13:43:50.070Z,8.20
2023-01-23T13:46:26.472Z,7.43
2023-01-23T14:21:42.055Z,10.80
2023-01-23T14:24:22.055Z,7.70
2023-01-23T14:26:50.453Z,9.73
2023-01-23T14:29:24.763Z,7.70
2023-01-23T14:31:52.261Z,8.80
2023-01-23T14:34:21.070Z,8.80
2023-01-23T14:36:52.714Z,7.80
2023-01-23T14:39:24.041Z,10.37
2023-01-23T14:41:51.671Z,9.63
2023-01-23T14:44:24.054Z,9.37
2023-01-23T14:46:52.742Z,12.20
2023-01-23T14:49:29.161Z,11.77
2023-01-23T14:52:00.829Z,11.47
2023-01-23T14:54:32.905Z,9.57
2023-01-23T14:57:04.226Z,9.90
2023-01-23T14:59:38.966Z,10.60
2023-01-23T15:02:25.258Z,11.57
2023-01-23T15:05:19.213Z,9.53
2023-01-23T15:07:48.061Z,8.93
2023-01-23T15:10:19.940Z,12.00
2023-01-23T15:12:50.109Z,14.30
2023-01-23T15:15:19.768Z,11.53
2023-01-23T15:17:52.604Z,12.53
2023-01-23T15:20:41.028Z,11.07
2023-01-23T15:23:30.934Z,13.20
2023-01-23T15:26:18.411Z,11.97
2023-01-23T15:28:55.845Z,13.50
2023-01-23T15:31:29.972Z,12.37
2023-01-23T15:33:58.335Z,11.13
2023-01-23T15:36:30.076Z,12.70
2023-01-23T15:38:58.590Z,12.90
2023-01-23T15:41:44.421Z,12.70
2023-01-23T15:44:17.135Z,13.60
2023-01-23T15:46:44.383Z,13.50
2023-01-23T15:49:24.366Z,11.90
2023-01-23T15:51:55.057Z,12.37
2023-01-23T15:54:28.579Z,13.10
2023-01-23T15:57:06.683Z,12.67
2023-01-23T15:59:35.904Z,15.47
2023-01-23T16:02:04.215Z,14.97
2023-01-23T16:04:31.410Z,11.50
2023-01-23T16:07:00.860Z,13.27
2023-01-23T16:09:30.633Z,11.80
2023-01-23T16:11:59.641Z,14.70
2023-01-23T16:14:27.245Z,11.80
2023-01-23T16:16:56.586Z,12.60
2023-01-23T16:19:23.903Z,12.07
2023-01-23T16:22:03.393Z,11.83
2023-01-23T16:24:32.587Z,14.23
2023-01-23T16:27:02.057Z,12.00
2023-01-23T16:29:29.267Z,13.50
2023-01-23T16:31:57.698Z,12.87
2023-01-23T16:34:25.573Z,14.67
2023-01-23T16:36:57.778Z,19.57
2023-01-23T16:39:27.031Z,16.57
2023-01-23T16:41:57.875Z,12.40
2023-01-23T16:44:25.150Z,15.20
2023-01-23T16:46:53.119Z,12.00
2023-01-23T16:49:20.947Z,12.43
2023-01-23T16:51:51.932Z,11.80
2023-01-23T16:54:21.333Z,15.10
2023-01-23T16:56:52.785Z,14.13
2023-01-23T16:59:21.717Z,14.90
2023-01-23T17:01:51.609Z,15.17
2023-01-23T17:04:20.858Z,15.37
2023-01-23T17:06:49.823Z,17.13
2023-01-23T17:09:17.886Z,16.30
2023-01-23T17:11:48.005Z,14.27
2023-01-23T17:14:16.939Z,14.10
2023-01-23T17:16:44.955Z,11.83
2023-01-23T17:19:18.827Z,16.00
2023-01-23T17:21:46.267Z,16.90
2023-01-23T17:24:17.436Z,14.67
2023-01-23T17:26:45.236Z,17.90
2023-01-23T17:29:12.952Z,15.30
2023-01-23T17:31:41.152Z,13.97
2023-01-23T17:34:16.409Z,16.13
2023-01-23T17:36:43.826Z,14.07
2023-01-23T17:39:11.832Z,12.50
2023-01-23T17:41:38.995Z,18.60
2023-01-23T17:44:06.159Z,16.80
2023-01-23T17:46:39.395Z,16.00
2023-01-23T17:49:20.975Z,17.50
2023-01-23T17:51:48.152Z,16.13
2023-01-23T17:54:19.927Z,16.20
2023-01-23T17:56:48.357Z,13.83
2023-01-23T17:59:15.858Z,15.93
2023-01-23T18:01:43.270Z,18.23
2023-01-23T18:04:21.117Z,16.23
2023-01-23T18:06:48.770Z,14.90
2023-01-23T18:09:16.021Z,15.77
2023-01-23T18:11:49.702Z,15.73
2023-01-23T18:14:36.137Z,19.03
2023-01-23T18:17:09.621Z,16.17
2023-01-23T18:19:37.095Z,18.20
2023-01-23T18:22:10.355Z,16.70
2023-01-23T18:24:38.347Z,16.87
2023-01-23T18:27:14.330Z,17.70
2023-01-23T18:29:41.772Z,18.83
2023-01-23T18:32:14.980Z,19.50
2023-01-23T18:34:50.378Z,16.10
2023-01-23T18:37:50.190Z,17.63
2023-01-23T18:40:18.465Z,20.40
2023-01-23T18:42:53.530Z,14.80
2023-01-23T18:45:27.315Z,17.00
2023-01-23T18:47:55.580Z,23.03
2023-01-23T18:50:25.460Z,19.40
2023-01-23T18:53:12.856Z,18.17
2023-01-23T18:55:44.466Z,17.27
2023-01-23T18:58:20.888Z,21.07
2023-01-23T19:00:51.075Z,18.63
2023-01-23T19:03:18.691Z,19.83
2023-01-23T19:05:46.376Z,19.20
2023-01-23T19:08:27.897Z,24.17
2023-01-23T19:10:58.410Z,21.13
2023-01-23T19:13:29.876Z,19.47
2023-01-23T19:16:16.709Z,18.23
2023-01-23T19:18:46.356Z,22.30
2023-01-23T19:21:15.482Z,21.37
2023-01-23T19:23:52.221Z,16.47
2023-01-23T19:26:20.026Z,20.20
2023-01-23T19:28:47.357Z,17.43
2023-01-23T19:31:22.993Z,15.43
2023-01-23T19:33:50.763Z,22.93
2023-01-23T19:36:18.010Z,19.50
2023-01-23T19:38:45.470Z,18.80
2023-01-23T19:41:19.425Z,21.43
2023-01-23T19:43:53.658Z,18.37
2023-01-23T19:46:22.617Z,20.50
2023-01-23T19:48:51.616Z,19.20
2023-01-23T19:51:21.495Z,19.80
2023-01-23T19:53:49.260Z,21.37
2023-01-23T19:56:20.704Z,20.53
2023-01-23T19:58:48.270Z,19.70
2023-01-23T20:01:31.220Z,16.90
2023-01-23T20:03:58.729Z,18.70
2023-01-23T20:06:25.923Z,20.43
2023-01-23T20:08:53.334Z,17.97
2023-01-23T20:11:20.760Z,16.53
2023-01-23T20:13:48.159Z,20.40
2023-01-23T20:16:20.214Z,19.47
2023-01-23T20:18:48.790Z,19.20
2023-01-23T20:21:16.720Z,18.37
2023-01-23T20:23:44.297Z,20.73
2023-01-23T20:26:12.878Z,18.07
2023-01-23T20:28:40.222Z,18.60
2023-01-23T20:31:08.340Z,19.10
2023-01-23T20:33:36.072Z,19.40
2023-01-23T20:36:03.505Z,19.10
2023-01-23T20:38:30.760Z,16.63
2023-01-23T20:41:04.973Z,19.30
2023-01-23T20:43:32.140Z,18.30
2023-01-23T20:45:59.330Z,18.63
2023-01-23T20:48:26.506Z,20.33
2023-01-23T20:50:55.085Z,19.13
2023-01-23T20:53:31.368Z,20.07
2023-01-23T20:56:00.120Z,24.07
2023-01-23T20:58:46.853Z,14.47
2023-01-23T21:01:14.408Z,18.90
2023-01-23T21:03:41.915Z,18.17
2023-01-23T21:06:09.747Z,18.80
2023-01-23T21:08:37.188Z,19.27
2023-01-23T21:11:14.940Z,15.20
2023-01-23T21:13:42.690Z,17.70
2023-01-23T21:16:12.821Z,20.67
2023-01-23T21:18:46.157Z,19.43
2023-01-23T21:21:14.416Z,19.63
2023-01-23T21:23:42.385Z,17.80
2023-01-23T21:26:09.626Z,18.57
2023-01-23T21:28:38.259Z,19.50
2023-01-23T21:31:12.468Z,15.70
2023-01-23T21:33:44.037Z,17.00
2023-01-23T21:36:12.097Z,18.53
2023-01-23T21:38:58.671Z,18.17
2023-01-23T21:41:25.987Z,14.57
2023-01-23T21:43:53.158Z,16.77
2023-01-23T21:46:21.145Z,20.63
2023-01-23T21:48:48.317Z,13.97
2023-01-23T21:51:19.942Z,19.53
2023-01-23T21:53:47.906Z,21.37
2023-01-23T21:56:16.333Z,18.87
2023-01-23T21:58:43.669Z,21.80
2023-01-23T22:01:31.948Z,16.37
2023-01-23T22:03:59.961Z,19.23
2023-01-23T22:06:27.157Z,16.50
2023-01-23T22:08:54.485Z,19.97
2023-01-23T22:11:21.783Z,15.43
2023-01-23T22:13:49.015Z,18.67
2023-01-23T22:16:16.546Z,24.03
2023-01-23T22:18:45.352Z,17.30
2023-01-23T22:21:12.682Z,23.10
2023-01-23T22:23:40.092Z,20.30
2023-01-23T22:26:08.227Z,25.00
2023-01-23T22:28:35.514Z,20.97
2023-01-23T22:31:07.329Z,20.47
2023-01-23T22:33:40.484Z,18.93
2023-01-23T22:36:09.284Z,23.63
2023-01-23T22:38:36.495Z,16.80
2023-01-23T22:41:04.723Z,19.53
2023-01-23T22:43:32.246Z,18.10
2023-01-23T22:46:04.967Z,18.47
2023-01-23T22:48:32.138Z,18.83
2023-01-23T22:51:01.629Z,16.67
2023-01-23T22:53:28.907Z,23.03
2023-01-23T22:55:56.048Z,17.00
2023-01-23T22:58:23.780Z,22.23
2023-01-23T23:00:53.104Z,20.30
2023-01-23T23:03:21.484Z,17.63
2023-01-23T23:05:56.730Z,22.00
2023-01-23T23:08:24.086Z,21.07
2023-01-23T23:10:58.136Z,17.43
2023-01-23T23:13:25.348Z,21.57
2023-01-23T23:15:52.756Z,20.63
2023-01-23T23:18:20.232Z,17.20
2023-01-23T23:20:47.797Z,22.47
2023-01-23T23:23:16.013Z,18.60
2023-01-23T23:25:43.419Z,20.03
2023-01-23T23:28:10.615Z,20.90
2023-01-23T23:30:37.737Z,20.53
2023-01-23T23:33:04.950Z,17.20
2023-01-23T23:35:32.169Z,24.93
2023-01-23T23:37:59.421Z,18.40
2023-01-23T23:40:26.733Z,24.90
2023-01-23T23:42:54.080Z,24.13
2023-01-23T23:45:21.522Z,19.40
2023-01-23T23:47:49.408Z,19.60
2023-01-23T23:50:16.986Z,19.40
2023-01-23T23:52:44.308Z,23.43
2023-01-23T23:55:11.540Z,18.40
2023-01-23T23:57:40.176Z,22.13
